sensor_id;sensor_type;location;lat;lon;timestamp;pressure;altitude;pressure_sealevel;temperature;humidity
7802;BME280;3945;48.952;9.506;2023-01-26T00:00:42;98479.22;;;1.87;90.07
7802;BME280;3945;48.952;9.506;2023-01-26T00:03:08;98478.03;;;1.89;90.62
7802;BME280;3945;48.952;9.506;2023-01-26T00:05:35;98483.97;;;1.83;89.25
7802;BME280;3945;48.952;9.506;2023-01-26T00:08:03;98475.97;;;1.77;89.75
7802;BME280;3945;48.952;9.506;2023-01-26T00:10:30;98465.81;;;1.74;90.14
7802;BME280;3945;48.952;9.506;2023-01-26T00:12:56;98469.78;;;1.70;89.96
7802;BME280;3945;48.952;9.506;2023-01-26T00:15:22;98468.66;;;1.64;89.93
7802;BME280;3945;48.952;9.506;2023-01-26T00:17:49;98460.31;;;1.61;90.34
7802;BME280;3945;48.952;9.506;2023-01-26T00:20:16;98461.78;;;1.63;90.07
7802;BME280;3945;48.952;9.506;2023-01-26T00:22:42;98456.53;;;1.63;90.41
7802;BME280;3945;48.952;9.506;2023-01-26T00:25:10;98451.75;;;1.67;91.03
7802;BME280;3945;48.952;9.506;2023-01-26T00:27:36;98445.88;;;1.65;90.60
7802;BME280;3945;48.952;9.506;2023-01-26T00:30:03;98440.44;;;1.66;91.14
7802;BME280;3945;48.952;9.506;2023-01-26T00:32:29;98438.31;;;1.70;90.49
7802;BME280;3945;48.952;9.506;2023-01-26T00:34:56;98437.78;;;1.74;91.28
7802;BME280;3945;48.952;9.506;2023-01-26T00:37:22;98431.06;;;1.80;91.24
7802;BME280;3945;48.952;9.506;2023-01-26T00:39:48;98431.06;;;1.80;91.02
7802;BME280;3945;48.952;9.506;2023-01-26T00:42:16;98422.66;;;1.84;90.96
7802;BME280;3945;48.952;9.506;2023-01-26T00:44:42;98425.13;;;1.86;90.90
7802;BME280;3945;48.952;9.506;2023-01-26T00:47:09;98422.94;;;1.89;90.40
7802;BME280;3945;48.952;9.506;2023-01-26T00:49:36;98423.94;;;1.88;90.70
7802;BME280;3945;48.952;9.506;2023-01-26T00:52:03;98429.81;;;1.90;90.36
7802;BME280;3945;48.952;9.506;2023-01-26T00:54:29;98424.47;;;1.84;90.46
7802;BME280;3945;48.952;9.506;2023-01-26T00:56:56;98425.81;;;1.80;90.71
7802;BME280;3945;48.952;9.506;2023-01-26T00:59:23;98413.84;;;1.77;90.91
7802;BME280;3945;48.952;9.506;2023-01-26T01:01:50;98416.63;;;1.76;91.03
7802;BME280;3945;48.952;9.506;2023-01-26T01:04:17;98414.81;;;1.76;90.65
7802;BME280;3945;48.952;9.506;2023-01-26T01:06:43;98408.59;;;1.77;90.68
7802;BME280;3945;48.952;9.506;2023-01-26T01:09:10;98407.44;;;1.80;91.22
7802;BME280;3945;48.952;9.506;2023-01-26T01:11:36;98418.56;;;1.82;90.61
7802;BME280;3945;48.952;9.506;2023-01-26T01:14:02;98411.69;;;1.81;91.19
7802;BME280;3945;48.952;9.506;2023-01-26T01:16:30;98411.19;;;1.85;91.36
7802;BME280;3945;48.952;9.506;2023-01-26T01:18:56;98415.06;;;1.89;91.26
7802;BME280;3945;48.952;9.506;2023-01-26T01:21:23;98418.19;;;1.93;90.23
7802;BME280;3945;48.952;9.506;2023-01-26T01:23:49;98419.63;;;1.95;90.93
7802;BME280;3945;48.952;9.506;2023-01-26T01:26:16;98417.81;;;1.96;90.87
7802;BME280;3945;48.952;9.506;2023-01-26T01:28:42;98404.69;;;1.96;90.28
7802;BME280;3945;48.952;9.506;2023-01-26T01:31:09;98406.69;;;1.94;90.71
7802;BME280;3945;48.952;9.506;2023-01-26T01:33:38;98408.97;;;1.97;90.27
7802;BME280;3945;48.952;9.506;2023-01-26T01:36:05;98399.00;;;1.92;90.55
7802;BME280;3945;48.952;9.506;2023-01-26T01:38:32;98397.81;;;1.95;89.86
7802;BME280;3945;48.952;9.506;2023-01-26T01:40:58;98398.63;;;1.95;90.71
7802;BME280;3945;48.952;9.506;2023-01-26T01:43:25;98401.09;;;1.97;90.45
7802;BME280;3945;48.952;9.506;2023-01-26T01:45:52;98387.78;;;1.99;89.65
7802;BME280;3945;48.952;9.506;2023-01-26T01:48:19;98392.06;;;2.00;90.17
7802;BME280;3945;48.952;9.506;2023-01-26T01:50:50;98388.63;;;1.99;89.75
7802;BME280;3945;48.952;9.506;2023-01-26T01:53:17;98393.22;;;1.97;90.66
7802;BME280;3945;48.952;9.506;2023-01-26T01:55:49;98386.31;;;1.96;90.61
7802;BME280;3945;48.952;9.506;2023-01-26T01:58:15;98394.56;;;1.93;91.20
7802;BME280;3945;48.952;9.506;2023-01-26T02:00:42;98387.50;;;1.93;90.30
7802;BME280;3945;48.952;9.506;2023-01-26T02:03:08;98385.22;;;1.90;90.92
7802;BME280;3945;48.952;9.506;2023-01-26T02:05:41;98383.75;;;1.88;91.41
7802;BME280;3945;48.952;9.506;2023-01-26T02:08:11;98384.94;;;1.85;90.52
7802;BME280;3945;48.952;9.506;2023-01-26T02:10:38;98389.88;;;1.80;91.51
7802;BME280;3945;48.952;9.506;2023-01-26T02:13:04;98378.91;;;1.77;90.85
7802;BME280;3945;48.952;9.506;2023-01-26T02:15:32;98375.03;;;1.73;91.15
7802;BME280;3945;48.952;9.506;2023-01-26T02:17:59;98388.94;;;1.73;92.33
7802;BME280;3945;48.952;9.506;2023-01-26T02:20:30;98385.81;;;1.78;91.80
7802;BME280;3945;48.952;9.506;2023-01-26T02:23:02;98379.25;;;1.74;92.05
7802;BME280;3945;48.952;9.506;2023-01-26T02:25:38;98368.59;;;1.75;92.72
7802;BME280;3945;48.952;9.506;2023-01-26T02:28:07;98367.78;;;1.75;91.97
7802;BME280;3945;48.952;9.506;2023-01-26T02:30:34;98361.53;;;1.76;92.05
7802;BME280;3945;48.952;9.506;2023-01-26T02:33:00;98363.50;;;1.74;92.71
7802;BME280;3945;48.952;9.506;2023-01-26T02:35:26;98353.22;;;1.72;92.67
7802;BME280;3945;48.952;9.506;2023-01-26T02:37:53;98350.78;;;1.71;92.10
7802;BME280;3945;48.952;9.506;2023-01-26T02:40:22;98348.31;;;1.69;92.81
7802;BME280;3945;48.952;9.506;2023-01-26T02:42:51;98337.66;;;1.71;92.63
7802;BME280;3945;48.952;9.506;2023-01-26T02:45:20;98340.94;;;1.73;93.16
7802;BME280;3945;48.952;9.506;2023-01-26T02:47:46;98337.66;;;1.71;91.86
7802;BME280;3945;48.952;9.506;2023-01-26T02:50:13;98336.66;;;1.72;92.46
7802;BME280;3945;48.952;9.506;2023-01-26T02:52:39;98327.63;;;1.74;91.55
7802;BME280;3945;48.952;9.506;2023-01-26T02:55:06;98325.25;;;1.65;92.50
7802;BME280;3945;48.952;9.506;2023-01-26T02:57:47;98325.75;;;1.60;92.54
7802;BME280;3945;48.952;9.506;2023-01-26T03:00:14;98321.03;;;1.55;92.37
7802;BME280;3945;48.952;9.506;2023-01-26T03:02:42;98323.38;;;1.50;92.12
7802;BME280;3945;48.952;9.506;2023-01-26T03:05:09;98318.28;;;1.49;92.56
7802;BME280;3945;48.952;9.506;2023-01-26T03:07:35;98320.09;;;1.48;93.15
7802;BME280;3945;48.952;9.506;2023-01-26T03:10:02;98313.75;;;1.43;92.44
7802;BME280;3945;48.952;9.506;2023-01-26T03:12:28;98323.53;;;1.49;93.26
7802;BME280;3945;48.952;9.506;2023-01-26T03:14:55;98313.03;;;1.49;93.56
7802;BME280;3945;48.952;9.506;2023-01-26T03:17:38;98304.91;;;1.44;92.82
7802;BME280;3945;48.952;9.506;2023-01-26T03:20:07;98309.81;;;1.39;93.23
7802;BME280;3945;48.952;9.506;2023-01-26T03:22:52;98304.44;;;1.32;92.40
7802;BME280;3945;48.952;9.506;2023-01-26T03:25:50;98301.88;;;1.24;93.37
7802;BME280;3945;48.952;9.506;2023-01-26T03:28:34;98303.56;;;1.17;92.85
7802;BME280;3945;48.952;9.506;2023-01-26T03:31:00;98308.97;;;1.15;93.74
7802;BME280;3945;48.952;9.506;2023-01-26T03:33:31;98305.88;;;1.12;93.85
7802;BME280;3945;48.952;9.506;2023-01-26T03:35:58;98311.78;;;1.14;94.01
7802;BME280;3945;48.952;9.506;2023-01-26T03:38:25;98305.53;;;1.15;94.64
7802;BME280;3945;48.952;9.506;2023-01-26T03:40:53;98308.16;;;1.15;94.29
7802;BME280;3945;48.952;9.506;2023-01-26T03:43:40;98305.34;;;1.16;94.09
7802;BME280;3945;48.952;9.506;2023-01-26T03:46:24;98307.00;;;1.17;93.63
7802;BME280;3945;48.952;9.506;2023-01-26T03:49:07;98306.34;;;1.15;94.37
7802;BME280;3945;48.952;9.506;2023-01-26T03:51:53;98306.81;;;1.19;94.64
7802;BME280;3945;48.952;9.506;2023-01-26T03:54:37;98325.47;;;1.24;94.61
7802;BME280;3945;48.952;9.506;2023-01-26T03:57:21;98319.06;;;1.27;94.56
7802;BME280;3945;48.952;9.506;2023-01-26T03:59:47;98311.66;;;1.30;94.17
7802;BME280;3945;48.952;9.506;2023-01-26T04:02:13;98310.50;;;1.33;94.63
7802;BME280;3945;48.952;9.506;2023-01-26T04:04:57;98314.13;;;1.32;94.69
7802;BME280;3945;48.952;9.506;2023-01-26T04:07:42;98305.75;;;1.36;94.73
7802;BME280;3945;48.952;9.506;2023-01-26T04:10:26;98304.56;;;1.39;94.21
7802;BME280;3945;48.952;9.506;2023-01-26T04:12:53;98303.75;;;1.38;94.52
7802;BME280;3945;48.952;9.506;2023-01-26T04:15:37;98306.38;;;1.38;93.61
7802;BME280;3945;48.952;9.506;2023-01-26T04:18:21;98307.03;;;1.40;93.64
7802;BME280;3945;48.952;9.506;2023-01-26T04:21:05;98310.31;;;1.42;94.73
7802;BME280;3945;48.952;9.506;2023-01-26T04:23:51;98305.41;;;1.39;94.20
7802;BME280;3945;48.952;9.506;2023-01-26T04:26:18;98309.00;;;1.38;94.46
7802;BME280;3945;48.952;9.506;2023-01-26T04:28:44;98306.56;;;1.37;93.94
7802;BME280;3945;48.952;9.506;2023-01-26T04:31:11;98312.28;;;1.40;94.43
7802;BME280;3945;48.952;9.506;2023-01-26T04:33:37;98305.41;;;1.39;93.35
7802;BME280;3945;48.952;9.506;2023-01-26T04:36:04;98299.88;;;1.34;93.72
7802;BME280;3945;48.952;9.506;2023-01-26T04:38:31;98292.97;;;1.33;93.37
7802;BME280;3945;48.952;9.506;2023-01-26T04:40:58;98296.94;;;1.29;93.88
7802;BME280;3945;48.952;9.506;2023-01-26T04:43:25;98290.19;;;1.35;93.39
7802;BME280;3945;48.952;9.506;2023-01-26T04:45:57;98292.53;;;1.30;93.56
7802;BME280;3945;48.952;9.506;2023-01-26T04:48:24;98293.69;;;1.27;93.38
7802;BME280;3945;48.952;9.506;2023-01-26T04:50:54;98288.16;;;1.22;93.63
7802;BME280;3945;48.952;9.506;2023-01-26T04:53:20;98286.16;;;1.24;93.92
7802;BME280;3945;48.952;9.506;2023-01-26T04:55:46;98282.09;;;1.22;94.37
7802;BME280;3945;48.952;9.506;2023-01-26T04:58:14;98286.69;;;1.20;94.68
7802;BME280;3945;48.952;9.506;2023-01-26T05:00:41;98288.66;;;1.17;93.92
7802;BME280;3945;48.952;9.506;2023-01-26T05:03:07;98286.38;;;1.14;93.96
7802;BME280;3945;48.952;9.506;2023-01-26T05:05:34;98292.78;;;1.12;93.89
7802;BME280;3945;48.952;9.506;2023-01-26T05:08:01;98294.25;;;1.14;94.13
7802;BME280;3945;48.952;9.506;2023-01-26T05:10:27;98289.34;;;1.11;94.06
7802;BME280;3945;48.952;9.506;2023-01-26T05:12:53;98289.03;;;1.06;94.37
7802;BME280;3945;48.952;9.506;2023-01-26T05:15:21;98291.00;;;1.04;93.70
7802;BME280;3945;48.952;9.506;2023-01-26T05:17:48;98288.56;;;1.03;94.43
7802;BME280;3945;48.952;9.506;2023-01-26T05:20:14;98286.75;;;1.03;94.23
7802;BME280;3945;48.952;9.506;2023-01-26T05:22:40;98285.81;;;0.96;94.23
7802;BME280;3945;48.952;9.506;2023-01-26T05:25:07;98291.91;;;0.89;94.32
7802;BME280;3945;48.952;9.506;2023-01-26T05:27:33;98288.00;;;0.85;94.25
7802;BME280;3945;48.952;9.506;2023-01-26T05:30:00;98290.25;;;0.88;95.20
7802;BME280;3945;48.952;9.506;2023-01-26T05:32:28;98298.13;;;0.88;95.15
7802;BME280;3945;48.952;9.506;2023-01-26T05:34:55;98293.56;;;0.82;94.34
7802;BME280;3945;48.952;9.506;2023-01-26T05:37:22;98296.84;;;0.84;94.22
7802;BME280;3945;48.952;9.506;2023-01-26T05:39:49;98289.13;;;0.82;95.21
7802;BME280;3945;48.952;9.506;2023-01-26T05:42:15;98294.38;;;0.82;95.45
7802;BME280;3945;48.952;9.506;2023-01-26T05:44:42;98291.44;;;0.85;94.68
7802;BME280;3945;48.952;9.506;2023-01-26T05:47:08;98288.00;;;0.85;95.05
7802;BME280;3945;48.952;9.506;2023-01-26T05:49:36;98299.63;;;0.82;94.96
7802;BME280;3945;48.952;9.506;2023-01-26T05:52:06;98304.84;;;0.82;94.36
7802;BME280;3945;48.952;9.506;2023-01-26T05:54:33;98301.78;;;0.78;94.46
7802;BME280;3945;48.952;9.506;2023-01-26T05:56:59;98303.38;;;0.79;94.53
7802;BME280;3945;48.952;9.506;2023-01-26T05:59:26;98303.75;;;0.76;94.52
7802;BME280;3945;48.952;9.506;2023-01-26T06:01:52;98308.97;;;0.76;95.06
7802;BME280;3945;48.952;9.506;2023-01-26T06:04:19;98299.16;;;0.78;95.16
7802;BME280;3945;48.952;9.506;2023-01-26T06:06:46;98309.44;;;0.80;95.17
7802;BME280;3945;48.952;9.506;2023-01-26T06:09:13;98299.31;;;0.77;94.36
7802;BME280;3945;48.952;9.506;2023-01-26T06:11:39;98302.91;;;0.76;95.08
7802;BME280;3945;48.952;9.506;2023-01-26T06:14:06;98296.19;;;0.82;94.71
7802;BME280;3945;48.952;9.506;2023-01-26T06:16:32;98295.38;;;0.81;95.31
7802;BME280;3945;48.952;9.506;2023-01-26T06:18:58;98296.66;;;0.85;94.55
7802;BME280;3945;48.952;9.506;2023-01-26T06:21:25;98294.22;;;0.84;94.33
7802;BME280;3945;48.952;9.506;2023-01-26T06:23:52;98293.41;;;0.83;94.45
7802;BME280;3945;48.952;9.506;2023-01-26T06:26:19;98296.66;;;0.85;93.78
7802;BME280;3945;48.952;9.506;2023-01-26T06:28:45;98296.66;;;0.85;94.41
7802;BME280;3945;48.952;9.506;2023-01-26T06:31:11;98302.72;;;0.86;93.95
7802;BME280;3945;48.952;9.506;2023-01-26T06:33:38;98296.34;;;0.80;93.48
7802;BME280;3945;48.952;9.506;2023-01-26T06:36:05;98304.41;;;0.78;93.45
7802;BME280;3945;48.952;9.506;2023-01-26T06:38:32;98298.63;;;0.83;94.15
7802;BME280;3945;48.952;9.506;2023-01-26T06:41:00;98306.50;;;0.83;93.72
7802;BME280;3945;48.952;9.506;2023-01-26T06:43:27;98306.97;;;0.87;93.76
7802;BME280;3945;48.952;9.506;2023-01-26T06:45:54;98303.34;;;0.88;93.15
7802;BME280;3945;48.952;9.506;2023-01-26T06:48:20;98301.91;;;0.85;92.93
7802;BME280;3945;48.952;9.506;2023-01-26T06:50:47;98306.00;;;0.79;93.46
7802;BME280;3945;48.952;9.506;2023-01-26T06:53:23;98301.41;;;0.82;93.29
7802;BME280;3945;48.952;9.506;2023-01-26T06:55:50;98302.91;;;0.84;93.34
7802;BME280;3945;48.952;9.506;2023-01-26T06:58:18;98302.72;;;0.86;93.33
7802;BME280;3945;48.952;9.506;2023-01-26T07:00:44;98299.75;;;0.89;93.46
7802;BME280;3945;48.952;9.506;2023-01-26T07:03:11;98294.34;;;0.90;93.84
7802;BME280;3945;48.952;9.506;2023-01-26T07:05:37;98299.44;;;0.92;93.19
7802;BME280;3945;48.952;9.506;2023-01-26T07:08:03;98297.94;;;0.89;93.32
7802;BME280;3945;48.952;9.506;2023-01-26T07:10:32;98305.16;;;0.87;93.08
7802;BME280;3945;48.952;9.506;2023-01-26T07:12:58;98299.63;;;0.82;93.22
7802;BME280;3945;48.952;9.506;2023-01-26T07:15:26;98306.00;;;0.79;93.54
7802;BME280;3945;48.952;9.506;2023-01-26T07:17:52;98310.25;;;0.81;93.28
7802;BME280;3945;48.952;9.506;2023-01-26T07:20:19;98313.84;;;0.79;93.56
7802;BME280;3945;48.952;9.506;2023-01-26T07:22:46;98318.94;;;0.81;93.77
7802;BME280;3945;48.952;9.506;2023-01-26T07:25:12;98320.41;;;0.84;93.83
7802;BME280;3945;48.952;9.506;2023-01-26T07:27:38;98320.25;;;0.85;93.87
7802;BME280;3945;48.952;9.506;2023-01-26T07:30:05;98325.16;;;0.80;93.50
7802;BME280;3945;48.952;9.506;2023-01-26T07:32:33;98318.13;;;0.81;92.97
7802;BME280;3945;48.952;9.506;2023-01-26T07:34:59;98318.78;;;0.83;93.22
7802;BME280;3945;48.952;9.506;2023-01-26T07:37:26;98319.44;;;0.85;93.84
7802;BME280;3945;48.952;9.506;2023-01-26T07:39:53;98320.25;;;0.85;93.76
7802;BME280;3945;48.952;9.506;2023-01-26T07:42:19;98315.63;;;0.87;93.59
7802;BME280;3945;48.952;9.506;2023-01-26T07:44:46;98320.72;;;0.89;93.17
7802;BME280;3945;48.952;9.506;2023-01-26T07:47:12;98321.19;;;0.92;93.06
7802;BME280;3945;48.952;9.506;2023-01-26T07:49:40;98321.81;;;0.94;93.66
7802;BME280;3945;48.952;9.506;2023-01-26T07:52:07;98326.91;;;0.96;92.78
7802;BME280;3945;48.952;9.506;2023-01-26T07:54:34;98320.69;;;0.97;93.55
7802;BME280;3945;48.952;9.506;2023-01-26T07:57:00;98321.66;;;0.96;93.29
7802;BME280;3945;48.952;9.506;2023-01-26T07:59:27;98318.56;;;1.00;93.49
7802;BME280;3945;48.952;9.506;2023-01-26T08:01:53;98318.19;;;1.03;93.02
7802;BME280;3945;48.952;9.506;2023-01-26T08:04:19;98314.44;;;1.06;92.68
7802;BME280;3945;48.952;9.506;2023-01-26T08:06:49;98319.66;;;1.06;92.15
7802;BME280;3945;48.952;9.506;2023-01-26T08:09:15;98320.66;;;1.05;91.81
7802;BME280;3945;48.952;9.506;2023-01-26T08:11:42;98319.84;;;1.04;91.55
7802;BME280;3945;48.952;9.506;2023-01-26T08:14:08;98310.16;;;1.05;91.41
7802;BME280;3945;48.952;9.506;2023-01-26T08:16:34;98315.56;;;1.03;92.19
7802;BME280;3945;48.952;9.506;2023-01-26T08:19:01;98311.97;;;1.04;91.58
7802;BME280;3945;48.952;9.506;2023-01-26T08:21:28;98312.63;;;1.06;92.01
7802;BME280;3945;48.952;9.506;2023-01-26T08:23:55;98305.75;;;1.05;92.29
7802;BME280;3945;48.952;9.506;2023-01-26T08:26:25;98312.63;;;1.06;92.22
7802;BME280;3945;48.952;9.506;2023-01-26T08:28:52;98304.94;;;1.05;91.33
7802;BME280;3945;48.952;9.506;2023-01-26T08:31:19;98305.44;;;1.00;90.58
7802;BME280;3945;48.952;9.506;2023-01-26T08:33:46;98298.09;;;0.96;91.18
7802;BME280;3945;48.952;9.506;2023-01-26T08:36:13;98304.50;;;0.93;91.02
7802;BME280;3945;48.952;9.506;2023-01-26T08:38:39;98303.31;;;0.96;91.13
7802;BME280;3945;48.952;9.506;2023-01-26T08:41:07;98305.28;;;0.94;90.83
7802;BME280;3945;48.952;9.506;2023-01-26T08:43:34;98297.63;;;0.92;91.22
7802;BME280;3945;48.952;9.506;2023-01-26T08:46:00;98300.06;;;0.94;91.45
7802;BME280;3945;48.952;9.506;2023-01-26T08:48:27;98301.69;;;0.95;91.47
7802;BME280;3945;48.952;9.506;2023-01-26T08:50:55;98299.88;;;0.95;91.69
7802;BME280;3945;48.952;9.506;2023-01-26T08:53:22;98299.06;;;0.95;91.02
7802;BME280;3945;48.952;9.506;2023-01-26T08:55:49;98296.28;;;0.96;91.87
7802;BME280;3945;48.952;9.506;2023-01-26T08:58:16;98298.56;;;0.99;91.54
7802;BME280;3945;48.952;9.506;2023-01-26T09:00:44;98295.78;;;1.01;90.74
7802;BME280;3945;48.952;9.506;2023-01-26T09:03:10;98293.16;;;1.01;90.72
7802;BME280;3945;48.952;9.506;2023-01-26T09:05:38;98297.41;;;1.02;90.41
7802;BME280;3945;48.952;9.506;2023-01-26T09:08:05;98297.88;;;1.05;90.58
7802;BME280;3945;48.952;9.506;2023-01-26T09:10:31;98295.91;;;1.07;91.42
7802;BME280;3945;48.952;9.506;2023-01-26T09:12:58;98288.69;;;1.09;91.04
7802;BME280;3945;48.952;9.506;2023-01-26T09:15:26;98290.16;;;1.12;90.39
7802;BME280;3945;48.952;9.506;2023-01-26T09:17:53;98302.28;;;1.13;90.15
7802;BME280;3945;48.952;9.506;2023-01-26T09:20:19;98294.56;;;1.11;90.00
7802;BME280;3945;48.952;9.506;2023-01-26T09:22:46;98296.38;;;1.11;90.15
7802;BME280;3945;48.952;9.506;2023-01-26T09:25:12;98304.72;;;1.14;90.17
7802;BME280;3945;48.952;9.506;2023-01-26T09:27:39;98305.72;;;1.13;89.54
7802;BME280;3945;48.952;9.506;2023-01-26T09:30:07;98308.34;;;1.13;89.41
7802;BME280;3945;48.952;9.506;2023-01-26T09:32:35;98303.41;;;1.10;89.58
7802;BME280;3945;48.952;9.506;2023-01-26T09:35:02;98305.38;;;1.08;89.24
7802;BME280;3945;48.952;9.506;2023-01-26T09:37:28;98305.59;;;1.07;88.94
7802;BME280;3945;48.952;9.506;2023-01-26T09:39:54;98307.56;;;1.05;89.13
7802;BME280;3945;48.952;9.506;2023-01-26T09:42:25;98318.84;;;1.05;88.87
7802;BME280;3945;48.952;9.506;2023-01-26T09:44:58;98314.25;;;1.07;89.37
7802;BME280;3945;48.952;9.506;2023-01-26T09:47:29;98309.66;;;1.09;89.50
7802;BME280;3945;48.952;9.506;2023-01-26T09:50:00;98309.59;;;1.17;89.53
7802;BME280;3945;48.952;9.506;2023-01-26T09:52:28;98312.06;;;1.19;88.33
7802;BME280;3945;48.952;9.506;2023-01-26T09:54:57;98306.81;;;1.19;87.38
7802;BME280;3945;48.952;9.506;2023-01-26T09:57:26;98308.78;;;1.17;87.58
7802;BME280;3945;48.952;9.506;2023-01-26T09:59:55;98308.78;;;1.17;87.92
7802;BME280;3945;48.952;9.506;2023-01-26T10:02:36;98302.72;;;1.16;86.76
7802;BME280;3945;48.952;9.506;2023-01-26T10:05:11;98308.66;;;1.10;87.73
7802;BME280;3945;48.952;9.506;2023-01-26T10:07:41;98303.78;;;1.07;87.49
7802;BME280;3945;48.952;9.506;2023-01-26T10:10:09;98306.41;;;1.07;86.84
7802;BME280;3945;48.952;9.506;2023-01-26T10:12:38;98304.59;;;1.08;87.07
7802;BME280;3945;48.952;9.506;2023-01-26T10:15:06;98309.31;;;1.12;87.33
7802;BME280;3945;48.952;9.506;2023-01-26T10:17:34;98306.34;;;1.15;87.02
7802;BME280;3945;48.952;9.506;2023-01-26T10:20:03;98304.38;;;1.17;86.28
7802;BME280;3945;48.952;9.506;2023-01-26T10:22:35;98300.94;;;1.17;85.84
7802;BME280;3945;48.952;9.506;2023-01-26T10:25:06;98302.72;;;1.16;85.91
7802;BME280;3945;48.952;9.506;2023-01-26T10:27:38;98300.94;;;1.17;85.50
7802;BME280;3945;48.952;9.506;2023-01-26T10:30:07;98299.63;;;1.21;85.56
7802;BME280;3945;48.952;9.506;2023-01-26T10:32:37;98292.75;;;1.20;85.52
7802;BME280;3945;48.952;9.506;2023-01-26T10:35:07;98289.94;;;1.22;85.54
7802;BME280;3945;48.952;9.506;2023-01-26T10:37:37;98291.09;;;1.19;85.03
7802;BME280;3945;48.952;9.506;2023-01-26T10:40:03;98300.44;;;1.22;84.93
7802;BME280;3945;48.952;9.506;2023-01-26T10:42:32;98305.97;;;1.27;85.97
7802;BME280;3945;48.952;9.506;2023-01-26T10:45:00;98301.38;;;1.29;85.26
7802;BME280;3945;48.952;9.506;2023-01-26T10:47:27;98305.81;;;1.28;84.29
7802;BME280;3945;48.952;9.506;2023-01-26T10:50:03;98296.13;;;1.29;83.64
7802;BME280;3945;48.952;9.506;2023-01-26T10:52:40;98298.91;;;1.27;83.90
7802;BME280;3945;48.952;9.506;2023-01-26T10:55:21;98291.22;;;1.26;83.80
7802;BME280;3945;48.952;9.506;2023-01-26T10:57:47;98303.50;;;1.25;83.68
7802;BME280;3945;48.952;9.506;2023-01-26T11:00:18;98304.84;;;1.21;83.69
7802;BME280;3945;48.952;9.506;2023-01-26T11:02:48;98298.97;;;1.19;83.34
7802;BME280;3945;48.952;9.506;2023-01-26T11:05:18;98289.13;;;1.21;84.31
7802;BME280;3945;48.952;9.506;2023-01-26T11:07:46;98280.75;;;1.26;85.25
7802;BME280;3945;48.952;9.506;2023-01-26T11:10:17;98285.44;;;1.30;84.35
7802;BME280;3945;48.952;9.506;2023-01-26T11:12:45;98281.03;;;1.31;84.04
7802;BME280;3945;48.952;9.506;2023-01-26T11:15:15;98274.34;;;1.28;83.85
7802;BME280;3945;48.952;9.506;2023-01-26T11:17:44;98279.59;;;1.28;84.08
7802;BME280;3945;48.952;9.506;2023-01-26T11:20:23;98277.78;;;1.29;83.36
7802;BME280;3945;48.952;9.506;2023-01-26T11:22:56;98281.56;;;1.26;83.00
7802;BME280;3945;48.952;9.506;2023-01-26T11:25:27;98282.72;;;1.24;84.34
7802;BME280;3945;48.952;9.506;2023-01-26T11:28:02;98277.00;;;1.20;83.94
7802;BME280;3945;48.952;9.506;2023-01-26T11:30:41;98280.78;;;1.17;84.04
7802;BME280;3945;48.952;9.506;2023-01-26T11:33:14;98285.38;;;1.15;84.27
7802;BME280;3945;48.952;9.506;2023-01-26T11:35:45;98270.31;;;1.17;84.89
7802;BME280;3945;48.952;9.506;2023-01-26T11:38:19;98278.69;;;1.13;84.08
7802;BME280;3945;48.952;9.506;2023-01-26T11:40:49;98274.44;;;1.12;85.29
7802;BME280;3945;48.952;9.506;2023-01-26T11:43:22;98268.88;;;1.15;85.35
7802;BME280;3945;48.952;9.506;2023-01-26T11:46:00;98262.97;;;1.13;84.60
7802;BME280;3945;48.952;9.506;2023-01-26T11:48:34;98266.41;;;1.13;85.38
7802;BME280;3945;48.952;9.506;2023-01-26T11:51:03;98257.72;;;1.13;84.57
7802;BME280;3945;48.952;9.506;2023-01-26T11:53:38;98251.97;;;1.17;85.23
7802;BME280;3945;48.952;9.506;2023-01-26T11:56:13;98251.25;;;1.24;84.72
7802;BME280;3945;48.952;9.506;2023-01-26T11:58:43;98243.41;;;1.24;83.85
7802;BME280;3945;48.952;9.506;2023-01-26T12:01:12;98238.53;;;1.21;84.55
7802;BME280;3945;48.952;9.506;2023-01-26T12:03:42;98237.16;;;1.25;84.92
7802;BME280;3945;48.952;9.506;2023-01-26T12:06:13;98228.97;;;1.28;84.74
7802;BME280;3945;48.952;9.506;2023-01-26T12:08:42;98226.19;;;1.29;84.78
7802;BME280;3945;48.952;9.506;2023-01-26T12:11:12;98233.84;;;1.31;84.35
7802;BME280;3945;48.952;9.506;2023-01-26T12:16:39;98229.72;;;1.36;84.04
7802;BME280;3945;48.952;9.506;2023-01-26T12:19:11;98224.66;;;1.35;84.63
7802;BME280;3945;48.952;9.506;2023-01-26T12:21:40;98222.53;;;1.30;84.51
7802;BME280;3945;48.952;9.506;2023-01-26T12:24:10;98223.72;;;1.28;84.33
7802;BME280;3945;48.952;9.506;2023-01-26T12:26:39;98217.03;;;1.25;84.43
7802;BME280;3945;48.952;9.506;2023-01-26T12:29:09;98213.59;;;1.25;84.45
7802;BME280;3945;48.952;9.506;2023-01-26T12:31:39;98208.16;;;1.26;84.15
7802;BME280;3945;48.952;9.506;2023-01-26T12:34:09;98207.34;;;1.26;84.39
7802;BME280;3945;48.952;9.506;2023-01-26T12:36:40;98209.81;;;1.27;85.10
7802;BME280;3945;48.952;9.506;2023-01-26T12:39:12;98198.50;;;1.27;84.78
7802;BME280;3945;48.952;9.506;2023-01-26T12:44:24;98185.56;;;1.25;85.34
7802;BME280;3945;48.952;9.506;2023-01-26T12:46:53;98183.78;;;1.26;85.40
7802;BME280;3945;48.952;9.506;2023-01-26T12:49:23;98182.31;;;1.23;85.76
7802;BME280;3945;48.952;9.506;2023-01-26T12:51:53;98194.78;;;1.21;85.59
7802;BME280;3945;48.952;9.506;2023-01-26T12:54:25;98191.78;;;1.24;85.78
7802;BME280;3945;48.952;9.506;2023-01-26T12:56:55;98186.38;;;1.26;86.10
7802;BME280;3945;48.952;9.506;2023-01-26T12:59:26;98182.78;;;1.27;85.62
7802;BME280;3945;48.952;9.506;2023-01-26T13:01:58;98177.38;;;1.28;86.10
7802;BME280;3945;48.952;9.506;2023-01-26T13:04:25;98180.59;;;1.30;85.20
7802;BME280;3945;48.952;9.506;2023-01-26T13:07:00;98179.00;;;1.29;85.07
7802;BME280;3945;48.952;9.506;2023-01-26T13:09:28;98173.75;;;1.29;85.73
7802;BME280;3945;48.952;9.506;2023-01-26T13:11:54;98182.59;;;1.28;85.74
7802;BME280;3945;48.952;9.506;2023-01-26T13:14:27;98180.59;;;1.30;85.27
7802;BME280;3945;48.952;9.506;2023-01-26T13:16:54;98173.94;;;1.28;85.19
7802;BME280;3945;48.952;9.506;2023-01-26T13:19:34;98173.44;;;1.24;85.54
7802;BME280;3945;48.952;9.506;2023-01-26T13:22:00;98173.81;;;1.21;85.53
7802;BME280;3945;48.952;9.506;2023-01-26T13:24:41;98177.53;;;1.27;85.39
7802;BME280;3945;48.952;9.506;2023-01-26T13:29:52;98166.00;;;1.36;85.16
7802;BME280;3945;48.952;9.506;2023-01-26T13:35:19;98167.28;;;1.40;84.74
7802;BME280;3945;48.952;9.506;2023-01-26T13:37:48;98167.28;;;1.40;84.00
7802;BME280;3945;48.952;9.506;2023-01-26T13:40:20;98167.28;;;1.40;85.05
7802;BME280;3945;48.952;9.506;2023-01-26T13:42:50;98166.28;;;1.41;84.05
7802;BME280;3945;48.952;9.506;2023-01-26T13:45:19;98173.16;;;1.42;84.71
7802;BME280;3945;48.952;9.506;2023-01-26T13:47:49;98183.66;;;1.42;84.72
7802;BME280;3945;48.952;9.506;2023-01-26T13:50:21;98185.63;;;1.40;84.00
7802;BME280;3945;48.952;9.506;2023-01-26T13:52:48;98178.91;;;1.37;83.89